Time;durP1;ratioP1;P1;durP2;ratioP2;P2;SDS_P1;SDS_P2;PMS_P1;PMS_P2;Temp;Humidity;BMP_temperature;BMP_pressure;BME280_temperature;BME280_humidity;BME280_pressure;Samples;Min_cycle;Max_cycle;Signal;HPM_P1;HPM_P2
2023/08/16 00:00:06;;;;;;;0.00;0.00;;;10.10;99.90;;;;;;5052557;28;20037;-88
2023/08/16 00:02:38;;;;;;;0.00;0.00;;;11.00;99.90;;;;;;5034036;28;20110;-88
2023/08/16 00:05:04;;;;;;;0.00;0.00;;;10.80;99.90;;;;;;5051288;28;20558;-88
2023/08/16 00:07:32;;;;;;;0.00;0.00;;;11.00;99.90;;;;;;5051385;28;20057;-88
2023/08/16 00:09:58;;;;;;;0.00;0.00;;;11.00;99.90;;;;;;5051094;28;20076;-88
2023/08/16 00:12:24;;;;;;;1.58;0.40;;;10.90;99.90;;;;;;5053014;28;20033;-88
2023/08/16 00:14:49;;;;;;;0.17;0.17;;;10.90;99.90;;;;;;5053546;28;20041;-88
2023/08/16 00:17:15;;;;;;;0.22;0.20;;;12.20;99.90;;;;;;5053112;28;20052;-88
2023/08/16 00:19:42;;;;;;;0.15;0.10;;;11.20;99.90;;;;;;5051475;28;20060;-88
2023/08/16 00:22:08;;;;;;;0.15;0.15;;;10.90;99.90;;;;;;5053649;28;20053;-87
2023/08/16 00:24:34;;;;;;;0.00;0.00;;;10.80;99.90;;;;;;5053648;28;20041;-88
2023/08/16 00:26:59;;;;;;;0.00;0.00;;;10.80;99.90;;;;;;5052195;28;20351;-87
2023/08/16 00:29:25;;;;;;;0.00;0.00;;;10.70;99.90;;;;;;5051997;28;20048;-88
2023/08/16 00:31:50;;;;;;;0.00;0.00;;;10.60;99.90;;;;;;5051663;28;20148;-88
2023/08/16 00:34:17;;;;;;;0.00;0.00;;;10.70;99.90;;;;;;5051317;28;20045;-87
2023/08/16 00:36:42;;;;;;;0.00;0.00;;;10.70;1.00;;;;;;5051160;28;20033;-88
2023/08/16 00:39:08;;;;;;;3.42;1.55;;;10.60;99.90;;;;;;5052126;28;20732;-88
2023/08/16 00:41:33;;;;;;;0.20;0.20;;;11.80;1.00;;;;;;5052247;28;20045;-88
2023/08/16 00:43:59;;;;;;;0.47;0.25;;;11.50;99.90;;;;;;5052031;28;20059;-88
2023/08/16 00:46:27;;;;;;;0.10;0.10;;;10.80;1.00;;;;;;5052398;28;20084;-88
2023/08/16 00:48:53;;;;;;;7.38;1.30;;;10.80;1.00;;;;;;5052283;28;20092;-88
2023/08/16 00:51:20;;;;;;;0.82;0.08;;;10.90;1.00;;;;;;5051781;28;20048;-88
2023/08/16 00:53:46;;;;;;;0.10;0.10;;;11.80;1.00;;;;;;5053962;28;20045;-88
2023/08/16 00:56:14;;;;;;;0.08;0.08;;;11.70;99.90;;;;;;5052918;28;20830;-87
2023/08/16 00:58:40;;;;;;;0.57;0.57;;;10.90;99.90;;;;;;5052782;28;20148;-87
2023/08/16 01:01:07;;;;;;;0.15;0.15;;;10.90;99.90;;;;;;5052200;28;20051;-88
2023/08/16 01:03:32;;;;;;;0.00;0.00;;;10.90;99.90;;;;;;5051662;28;20067;-88
2023/08/16 01:05:58;;;;;;;0.00;0.00;;;10.80;99.90;;;;;;5052070;28;20048;-88
2023/08/16 01:08:24;;;;;;;0.10;0.10;;;12.20;99.90;;;;;;5050931;28;20101;-88
2023/08/16 01:11:07;;;;;;;0.00;0.00;;;10.70;99.90;;;;;;5050755;28;20519;-88
2023/08/16 01:13:54;;;;;;;0.10;0.10;;;10.70;99.90;;;;;;5051023;28;20075;-87
2023/08/16 01:16:23;;;;;;;0.00;0.00;;;10.60;99.90;;;;;;5034126;28;20064;-87
2023/08/16 01:18:50;;;;;;;0.20;0.20;;;10.60;1.00;;;;;;5051353;28;20100;-88
2023/08/16 01:21:16;;;;;;;0.30;0.17;;;10.90;1.00;;;;;;5051486;28;20052;-88
2023/08/16 01:24:08;;;;;;;0.00;0.00;;;10.50;1.00;;;;;;5053316;28;20553;-87
2023/08/16 01:26:37;;;;;;;0.00;0.00;;;10.50;1.00;;;;;;5051639;28;20860;-87
2023/08/16 01:29:04;;;;;;;0.00;0.00;;;10.50;1.00;;;;;;5034410;28;20106;-88
2023/08/16 01:31:31;;;;;;;0.20;0.20;;;10.50;1.00;;;;;;5034156;28;20053;-87
2023/08/16 01:33:59;;;;;;;0.20;0.10;;;10.50;1.00;;;;;;5050093;28;20052;-87
2023/08/16 01:36:28;;;;;;;0.10;0.10;;;10.50;1.00;;;;;;5051429;28;20072;-87
2023/08/16 01:38:57;;;;;;;0.00;0.00;;;10.50;12.90;;;;;;5049881;28;20049;-87
2023/08/16 01:41:25;;;;;;;0.10;0.10;;;10.50;25.70;;;;;;5033305;28;20047;-87
2023/08/16 01:43:54;;;;;;;0.00;0.00;;;10.40;29.90;;;;;;5033649;28;20056;-87
2023/08/16 01:46:21;;;;;;;0.00;0.00;;;11.20;49.60;;;;;;5032756;28;20535;-87
2023/08/16 01:48:48;;;;;;;0.28;0.28;;;11.80;64.50;;;;;;5032617;28;20075;-87
2023/08/16 01:51:14;;;;;;;4.38;0.57;;;10.30;92.00;;;;;;5049491;28;20045;-87
2023/08/16 01:53:40;;;;;;;0.43;0.35;;;10.20;94.50;;;;;;5050985;28;20052;-87
2023/08/16 01:56:05;;;;;;;0.08;0.03;;;10.10;98.30;;;;;;5049547;28;20049;-87
2023/08/16 01:58:31;;;;;;;0.10;0.10;;;10.10;99.90;;;;;;5049560;28;20048;-87
2023/08/16 02:00:57;;;;;;;0.00;0.00;;;10.00;99.90;;;;;;5049298;28;20106;-89
2023/08/16 02:03:22;;;;;;;3.30;0.47;;;10.00;99.90;;;;;;5032757;28;20048;-87
2023/08/16 02:05:48;;;;;;;0.00;0.00;;;10.00;99.90;;;;;;5050808;28;20056;-87
2023/08/16 02:08:14;;;;;;;0.00;0.00;;;10.00;99.90;;;;;;5051262;28;20044;-87
2023/08/16 02:10:40;;;;;;;0.00;0.00;;;9.90;99.90;;;;;;5036753;28;20052;-86
2023/08/16 02:13:05;;;;;;;0.47;0.30;;;9.90;99.90;;;;;;5036399;28;20434;-87
2023/08/16 02:15:31;;;;;;;0.05;0.05;;;9.80;99.90;;;;;;5054728;28;20135;-87
2023/08/16 02:17:57;;;;;;;0.10;0.10;;;10.80;99.90;;;;;;5054115;28;20484;-87
2023/08/16 02:20:23;;;;;;;0.03;0.00;;;9.90;99.90;;;;;;5053379;28;20053;-86
2023/08/16 02:22:48;;;;;;;1.38;1.27;;;9.90;99.90;;;;;;5052751;28;20048;-87
2023/08/16 02:25:14;;;;;;;1.88;0.95;;;10.70;99.90;;;;;;5052425;28;20056;-87
2023/08/16 02:27:40;;;;;;;0.08;0.08;;;9.90;99.90;;;;;;5054252;28;20041;-87
2023/08/16 02:30:07;;;;;;;0.10;0.10;;;11.40;99.90;;;;;;5062816;28;20095;-87
2023/08/16 02:32:33;;;;;;;0.20;0.20;;;9.90;99.90;;;;;;5046682;28;20148;-87
2023/08/16 02:34:59;;;;;;;0.00;0.00;;;9.80;99.90;;;;;;5062829;28;20048;-87
2023/08/16 02:37:25;;;;;;;0.10;0.10;;;11.10;99.90;;;;;;5044006;28;20051;-87
2023/08/16 02:39:51;;;;;;;0.80;0.38;;;9.80;99.90;;;;;;5058388;28;20049;-87
2023/08/16 02:42:17;;;;;;;0.45;0.10;;;9.80;99.90;;;;;;5041374;28;20038;-87
2023/08/16 02:44:43;;;;;;;0.10;0.10;;;9.80;99.90;;;;;;5058581;28;20052;-87
2023/08/16 02:47:09;;;;;;;0.00;0.00;;;9.80;99.90;;;;;;5059550;28;20052;-88
2023/08/16 02:49:35;;;;;;;0.30;0.30;;;9.80;99.90;;;;;;5056602;28;20778;-87
2023/08/16 02:52:00;;;;;;;0.00;0.00;;;9.80;99.90;;;;;;5054866;28;20856;-87
2023/08/16 02:54:26;;;;;;;0.17;0.10;;;9.90;99.90;;;;;;5051244;28;20079;-87
2023/08/16 02:56:51;;;;;;;0.00;0.00;;;9.80;99.90;;;;;;5052660;28;20041;-87
2023/08/16 02:59:17;;;;;;;0.43;0.43;;;9.80;99.90;;;;;;5053294;28;20492;-87
2023/08/16 03:01:43;;;;;;;0.20;0.20;;;9.70;99.90;;;;;;5054901;28;20066;-88
2023/08/16 03:04:09;;;;;;;0.35;0.10;;;9.70;99.90;;;;;;5056278;28;20052;-88
2023/08/16 03:06:35;;;;;;;2.60;0.85;;;9.70;99.90;;;;;;5054134;28;20095;-88
2023/08/16 03:09:01;;;;;;;0.35;0.13;;;8.60;99.90;;;;;;5055210;28;20040;-87
2023/08/16 03:11:26;;;;;;;0.32;0.32;;;9.80;99.90;;;;;;5037670;28;20057;-88
2023/08/16 03:13:52;;;;;;;0.00;0.00;;;9.80;99.90;;;;;;5055590;28;20044;-88
2023/08/16 03:16:18;;;;;;;0.05;0.05;;;9.90;99.90;;;;;;5056515;28;20068;-87
2023/08/16 03:18:43;;;;;;;0.25;0.25;;;9.90;99.90;;;;;;5054895;28;20037;-88
2023/08/16 03:21:09;;;;;;;0.25;0.22;;;9.90;99.90;;;;;;5054819;28;20047;-87
2023/08/16 03:23:35;;;;;;;0.47;0.47;;;10.50;99.90;;;;;;5035777;28;20053;-88
2023/08/16 03:26:01;;;;;;;0.10;0.10;;;9.80;99.90;;;;;;5054338;28;20521;-88
2023/08/16 03:28:26;;;;;;;2.10;0.65;;;9.90;99.90;;;;;;5052334;28;20127;-87
2023/08/16 03:30:52;;;;;;;0.38;0.25;;;9.80;99.90;;;;;;5054351;28;20041;-87
2023/08/16 03:33:18;;;;;;;0.43;0.43;;;9.80;99.90;;;;;;5054214;28;20049;-88
2023/08/16 03:35:43;;;;;;;0.00;0.00;;;9.80;99.90;;;;;;5053647;28;20061;-87
2023/08/16 03:38:09;;;;;;;0.75;0.50;;;11.30;99.90;;;;;;5053864;28;20064;-87
2023/08/16 03:40:35;;;;;;;0.47;0.45;;;9.80;99.90;;;;;;5054476;28;20034;-88
2023/08/16 03:43:01;;;;;;;0.13;0.10;;;9.90;99.90;;;;;;5054913;28;20113;-88
2023/08/16 03:45:26;;;;;;;0.45;0.40;;;9.90;99.90;;;;;;5054160;28;20041;-88
2023/08/16 03:47:55;;;;;;;0.00;0.00;;;11.20;99.90;;;;;;5054420;28;20044;-88
2023/08/16 03:50:21;;;;;;;0.17;0.10;;;9.80;99.90;;;;;;5054218;28;20221;-88
2023/08/16 03:52:47;;;;;;;0.35;0.35;;;10.00;99.90;;;;;;5037032;28;20171;-88
2023/08/16 03:55:13;;;;;;;0.28;0.28;;;10.00;99.90;;;;;;5052099;28;20048;-88
2023/08/16 03:57:38;;;;;;;0.30;0.30;;;11.10;99.90;;;;;;5053652;28;20048;-88
2023/08/16 04:00:11;;;;;;;1.65;0.63;;;9.70;99.90;;;;;;5037055;28;20057;-87
2023/08/16 04:02:37;;;;;;;0.10;0.10;;;10.00;99.90;;;;;;5053653;28;20045;-88
2023/08/16 04:05:11;;;;;;;0.10;0.10;;;10.10;99.90;;;;;;5053007;28;20048;-88
2023/08/16 04:07:38;;;;;;;0.10;0.10;;;10.10;99.90;;;;;;5052656;28;20403;-87
2023/08/16 04:10:04;;;;;;;0.15;0.15;;;10.10;99.90;;;;;;5035464;28;20136;-87
2023/08/16 04:12:30;;;;;;;0.13;0.13;;;10.20;99.90;;;;;;5054064;28;20122;-87
2023/08/16 04:14:56;;;;;;;0.10;0.10;;;10.20;99.90;;;;;;5055893;28;20888;-87
2023/08/16 04:17:22;;;;;;;0.52;0.20;;;10.20;99.90;;;;;;5055685;28;20461;-87
2023/08/16 04:19:48;;;;;;;0.55;0.30;;;8.90;99.90;;;;;;5055106;28;20051;-87
2023/08/16 04:22:13;;;;;;;0.20;0.20;;;10.10;99.90;;;;;;5067340;28;20104;-87
2023/08/16 04:24:39;;;;;;;0.00;0.00;;;10.00;99.90;;;;;;5073487;28;20029;-87
2023/08/16 04:27:05;;;;;;;0.05;0.05;;;10.00;99.90;;;;;;5076202;28;20046;-88
2023/08/16 04:29:31;;;;;;;0.88;0.75;;;10.80;99.90;;;;;;5076166;28;20033;-87
2023/08/16 04:31:57;;;;;;;0.32;0.22;;;9.70;99.90;;;;;;5070407;28;20052;-87
2023/08/16 04:34:23;;;;;;;0.10;0.10;;;9.70;99.90;;;;;;5070048;28;20041;-87
2023/08/16 04:36:48;;;;;;;0.17;0.00;;;10.60;99.90;;;;;;5073991;28;20108;-87
2023/08/16 04:39:14;;;;;;;0.17;0.15;;;9.90;99.90;;;;;;5054643;28;20048;-87
2023/08/16 04:41:40;;;;;;;0.15;0.00;;;10.10;99.90;;;;;;5072959;28;20052;-87
2023/08/16 04:44:06;;;;;;;0.20;0.20;;;10.30;99.90;;;;;;5069535;28;20036;-87
2023/08/16 04:46:32;;;;;;;0.15;0.15;;;10.60;99.90;;;;;;5052196;28;20041;-87
2023/08/16 04:48:57;;;;;;;0.20;0.20;;;10.70;99.90;;;;;;5048346;28;20056;-87
2023/08/16 04:51:23;;;;;;;0.22;0.20;;;12.20;99.90;;;;;;5063706;28;20052;-87
2023/08/16 04:53:49;;;;;;;1.17;1.00;;;10.80;99.90;;;;;;5062738;28;20507;-87
2023/08/16 04:56:15;;;;;;;0.30;0.30;;;10.90;99.90;;;;;;5061808;28;20088;-87
2023/08/16 04:58:40;;;;;;;0.10;0.10;;;10.90;99.90;;;;;;5060253;28;20047;-87
2023/08/16 05:01:06;;;;;;;1.60;0.50;;;10.90;99.90;;;;;;5056453;28;20041;-88
2023/08/16 05:03:32;;;;;;;1.13;0.65;;;10.90;99.90;;;;;;5054718;28;20487;-88
2023/08/16 05:06:03;;;;;;;0.30;0.20;;;11.00;99.90;;;;;;5052968;28;20041;-88
2023/08/16 05:08:30;;;;;;;0.20;0.20;;;11.00;99.90;;;;;;5053006;28;20524;-88
2023/08/16 05:10:56;;;;;;;0.32;0.32;;;11.50;99.90;;;;;;5051594;28;20443;-88
2023/08/16 05:13:25;;;;;;;0.00;0.00;;;11.10;99.90;;;;;;5052784;28;20049;-88
2023/08/16 05:15:51;;;;;;;0.05;0.05;;;11.10;99.90;;;;;;5035662;28;20056;-87
2023/08/16 05:18:16;;;;;;;0.15;0.13;;;11.10;99.90;;;;;;5053676;28;20172;-88
2023/08/16 05:20:42;;;;;;;0.00;0.00;;;11.10;99.90;;;;;;5052762;28;20529;-88
2023/08/16 05:23:08;;;;;;;0.00;0.00;;;11.10;99.90;;;;;;5053296;28;20052;-88
2023/08/16 05:25:36;;;;;;;0.00;0.00;;;11.50;99.90;;;;;;5051947;28;20256;-88
2023/08/16 05:28:03;;;;;;;0.55;0.35;;;11.30;99.90;;;;;;5051923;28;20179;-88
2023/08/16 05:30:28;;;;;;;0.00;0.00;;;11.40;99.90;;;;;;5052831;28;20084;-88
2023/08/16 05:32:55;;;;;;;0.10;0.10;;;11.40;99.90;;;;;;5053683;28;20118;-88
2023/08/16 05:35:21;;;;;;;0.28;0.20;;;11.60;99.90;;;;;;5052488;28;20049;-87
2023/08/16 05:37:47;;;;;;;0.45;0.28;;;11.70;99.90;;;;;;5054985;28;20113;-88
2023/08/16 05:40:13;;;;;;;0.35;0.20;;;11.80;99.90;;;;;;5055141;28;20556;-88
2023/08/16 05:42:39;;;;;;;0.15;0.15;;;11.90;99.90;;;;;;5036288;28;20089;-88
2023/08/16 05:45:05;;;;;;;0.00;0.00;;;12.10;99.90;;;;;;5053230;28;20484;-88
2023/08/16 05:47:31;;;;;;;0.88;0.60;;;12.30;99.90;;;;;;5056435;28;20049;-88
2023/08/16 05:50:01;;;;;;;0.00;0.00;;;12.40;99.90;;;;;;5053555;28;20056;-87
2023/08/16 05:52:27;;;;;;;0.20;0.10;;;13.70;99.90;;;;;;5054267;28;20101;-87
2023/08/16 05:54:53;;;;;;;0.40;0.40;;;12.70;99.90;;;;;;5035286;28;20673;-87
2023/08/16 05:57:18;;;;;;;0.00;0.00;;;12.80;99.90;;;;;;5051948;28;20072;-88
2023/08/16 05:59:44;;;;;;;0.20;0.20;;;14.00;99.90;;;;;;5052485;28;20053;-88
2023/08/16 06:02:10;;;;;;;0.22;0.17;;;13.10;99.90;;;;;;5049564;28;20075;-88
2023/08/16 06:04:36;;;;;;;0.95;0.40;;;13.30;99.90;;;;;;5048527;28;20041;-88
2023/08/16 06:07:04;;;;;;;1.58;1.48;;;13.40;99.90;;;;;;5046983;28;20048;-87
2023/08/16 06:09:31;;;;;;;0.32;0.25;;;13.60;99.90;;;;;;5046335;28;20175;-87
2023/08/16 06:11:57;;;;;;;0.60;0.13;;;13.70;99.90;;;;;;5044653;28;20152;-88
2023/08/16 06:14:22;;;;;;;0.05;0.05;;;13.90;99.90;;;;;;5046290;28;20135;-87
2023/08/16 06:16:48;;;;;;;0.13;0.13;;;14.10;99.90;;;;;;5045351;28;20052;-87
2023/08/16 06:19:15;;;;;;;0.13;0.13;;;14.70;99.90;;;;;;5044361;28;20044;-87
2023/08/16 06:21:41;;;;;;;0.15;0.15;;;15.40;99.90;;;;;;5044541;28;20496;-88
2023/08/16 06:24:08;;;;;;;0.00;0.00;;;16.10;99.90;;;;;;5044829;28;20040;-88
2023/08/16 06:26:34;;;;;;;0.20;0.17;;;16.80;99.90;;;;;;5046570;28;20068;-88
2023/08/16 06:29:00;;;;;;;0.20;0.20;;;17.00;99.90;;;;;;5046328;28;20487;-88
2023/08/16 06:31:26;;;;;;;0.45;0.45;;;17.10;60.10;;;;;;5044176;28;20087;-87
2023/08/16 06:33:52;;;;;;;1.65;0.47;;;17.30;1.00;;;;;;5049560;28;20040;-88
2023/08/16 06:36:19;;;;;;;0.90;0.40;;;17.30;1.00;;;;;;5049621;28;20057;-88
2023/08/16 06:38:45;;;;;;;0.68;0.57;;;16.70;99.90;;;;;;5049769;28;20456;-88
2023/08/16 06:41:11;;;;;;;0.20;0.20;;;17.40;99.90;;;;;;5050240;28;20124;-88
2023/08/16 06:43:36;;;;;;;0.10;0.10;;;17.50;1.00;;;;;;5050734;28;20129;-88
2023/08/16 06:46:02;;;;;;;0.20;0.20;;;17.70;99.90;;;;;;5050646;28;20766;-87
2023/08/16 06:48:27;;;;;;;1.15;0.73;;;18.00;1.00;;;;;;5050507;28;20106;-88
2023/08/16 06:50:54;;;;;;;0.28;0.20;;;18.10;99.90;;;;;;5050199;28;20535;-88
2023/08/16 06:53:21;;;;;;;0.85;0.30;;;18.10;99.90;;;;;;5046425;28;20052;-88
2023/08/16 06:55:46;;;;;;;0.20;0.20;;;18.20;99.90;;;;;;5048985;28;20045;-88
2023/08/16 06:58:12;;;;;;;0.30;0.30;;;18.30;99.90;;;;;;5048758;28;20551;-85
2023/08/16 07:00:44;;;;;;;1.77;0.70;;;18.60;99.90;;;;;;5050676;28;20049;-85
2023/08/16 07:03:12;;;;;;;0.10;0.10;;;18.70;99.90;;;;;;5048001;28;20059;-88
2023/08/16 07:05:38;;;;;;;0.35;0.15;;;18.30;1.00;;;;;;5048147;28;20072;-88
2023/08/16 07:08:04;;;;;;;0.08;0.08;;;18.00;99.90;;;;;;5047970;28;20048;-88
2023/08/16 07:10:29;;;;;;;0.60;0.32;;;17.80;99.90;;;;;;5048110;28;20060;-87
2023/08/16 07:12:55;;;;;;;0.20;0.20;;;17.70;1.00;;;;;;5049187;28;20064;-87
2023/08/16 07:15:22;;;;;;;0.20;0.13;;;18.10;99.90;;;;;;5050370;28;20045;-87
2023/08/16 07:17:48;;;;;;;1.00;0.43;;;18.10;99.90;;;;;;5050605;28;20540;-88
2023/08/16 07:20:13;;;;;;;0.50;0.38;;;18.70;1.00;;;;;;5045744;28;20132;-88
2023/08/16 07:22:39;;;;;;;0.20;0.20;;;19.30;99.90;;;;;;5024855;28;20100;-88
2023/08/16 07:25:10;;;;;;;0.00;0.00;;;20.10;92.30;;;;;;5025038;28;20125;-85
2023/08/16 07:27:36;;;;;;;1.00;0.20;;;21.30;1.00;;;;;;5026659;28;20045;-86
2023/08/16 07:30:08;;;;;;;17.52;1.20;;;22.30;99.90;;;;;;5041710;28;20037;-86
2023/08/16 07:32:34;;;;;;;1.10;0.85;;;22.40;1.00;;;;;;5043126;28;20037;-86
2023/08/16 07:34:59;;;;;;;0.25;0.20;;;21.80;99.90;;;;;;5044154;28;20095;-86
2023/08/16 07:37:31;;;;;;;0.43;0.25;;;21.60;1.00;;;;;;5043824;28;20102;-86
2023/08/16 07:39:57;;;;;;;0.75;0.20;;;21.90;99.90;;;;;;5043139;28;20128;-86
2023/08/16 07:42:23;;;;;;;0.00;0.00;;;22.90;99.90;;;;;;5044230;28;20613;-86
2023/08/16 07:44:49;;;;;;;0.10;0.10;;;24.10;1.00;;;;;;5041067;28;20499;-86
2023/08/16 07:47:15;;;;;;;0.00;0.00;;;24.80;99.90;;;;;;5042475;28;20037;-86
2023/08/16 07:49:41;;;;;;;0.20;0.15;;;25.50;99.90;;;;;;5041963;28;20037;-86
2023/08/16 07:52:07;;;;;;;1.17;0.65;;;25.70;99.90;;;;;;5042740;28;20048;-86
2023/08/16 07:54:33;;;;;;;3.50;0.77;;;24.90;99.90;;;;;;5042499;28;20041;-86
2023/08/16 07:56:59;;;;;;;0.65;0.47;;;24.10;89.70;;;;;;5043812;28;20098;-86
2023/08/16 07:59:25;;;;;;;0.50;0.47;;;24.00;99.90;;;;;;5042091;28;20041;-86
2023/08/16 08:01:51;;;;;;;0.32;0.32;;;24.20;99.90;;;;;;5042324;28;20056;-86
2023/08/16 08:04:18;;;;;;;0.55;0.45;;;24.80;99.90;;;;;;5025286;28;20057;-86
2023/08/16 08:06:44;;;;;;;0.03;0.03;;;24.40;92.80;;;;;;5042816;28;20561;-86
2023/08/16 08:09:10;;;;;;;0.73;0.45;;;24.40;99.90;;;;;;5041792;28;20040;-86
2023/08/16 08:11:38;;;;;;;0.10;0.10;;;25.10;99.90;;;;;;5042996;28;20049;-86
2023/08/16 08:14:05;;;;;;;1.27;0.43;;;25.80;99.90;;;;;;5044610;28;20056;-86
2023/08/16 08:16:33;;;;;;;0.03;0.03;;;25.60;79.30;;;;;;5029343;28;20040;-86
2023/08/16 08:18:59;;;;;;;0.30;0.20;;;25.60;23.80;;;;;;5048547;28;20053;-86
2023/08/16 08:21:25;;;;;;;0.17;0.17;;;26.30;59.20;;;;;;5030608;28;20045;-86
2023/08/16 08:23:50;;;;;;;0.00;0.00;;;25.90;1.00;;;;;;5048016;28;20296;-86
2023/08/16 08:26:19;;;;;;;0.20;0.20;;;25.00;1.00;;;;;;5030279;28;20433;-86
2023/08/16 08:28:46;;;;;;;0.30;0.30;;;25.30;14.00;;;;;;5048519;28;20055;-86
2023/08/16 08:31:15;;;;;;;0.00;0.00;;;26.00;10.50;;;;;;5046161;28;20095;-86
2023/08/16 08:33:40;;;;;;;0.43;0.40;;;26.90;34.10;;;;;;5047816;28;20049;-86
2023/08/16 08:36:06;;;;;;;0.35;0.17;;;26.60;1.00;;;;;;5047716;28;20148;-87
2023/08/16 08:38:32;;;;;;;0.15;0.10;;;26.50;1.00;;;;;;5045517;28;20118;-86
2023/08/16 08:40:59;;;;;;;0.28;0.28;;;27.00;1.00;;;;;;5046464;28;20036;-86
2023/08/16 08:43:33;;;;;;;1.55;0.13;;;26.40;1.00;;;;;;5048358;28;20937;-88
2023/08/16 08:46:00;;;;;;;0.10;0.10;;;25.80;1.00;;;;;;5032878;28;20037;-88
2023/08/16 08:48:27;;;;;;;0.08;0.08;;;25.20;1.00;;;;;;5048571;28;20128;-88
2023/08/16 08:50:57;;;;;;;0.05;0.05;;;24.40;1.00;;;;;;5046803;28;20153;-88
2023/08/16 08:53:24;;;;;;;0.00;0.00;;;24.10;1.00;;;;;;5047494;28;20072;-88
2023/08/16 08:56:02;;;;;;;0.00;0.00;;;23.70;1.00;;;;;;5047619;28;20052;-88
2023/08/16 08:58:30;;;;;;;0.28;0.20;;;24.00;1.00;;;;;;5048572;28;20049;-89
2023/08/16 09:00:56;;;;;;;0.25;0.25;;;25.00;1.00;;;;;;5047814;28;20041;-88
2023/08/16 09:03:23;;;;;;;0.10;0.10;;;26.10;1.00;;;;;;5048165;28;20460;-89
2023/08/16 09:05:53;;;;;;;0.38;0.08;;;26.70;1.00;;;;;;5050240;28;20086;-89
2023/08/16 09:08:26;;;;;;;0.00;0.00;;;27.80;1.00;;;;;;5050181;28;20045;-89
2023/08/16 09:10:53;;;;;;;0.60;0.43;;;28.00;1.00;;;;;;5048653;28;20483;-89
2023/08/16 09:13:19;;;;;;;0.00;0.00;;;28.40;1.00;;;;;;5032045;28;20048;-88
2023/08/16 09:15:47;;;;;;;0.43;0.40;;;27.90;1.00;;;;;;5033077;28;20546;-88
2023/08/16 09:18:16;;;;;;;0.47;0.20;;;27.40;1.00;;;;;;5032030;28;20218;-88
2023/08/16 09:20:42;;;;;;;0.10;0.10;;;26.50;99.90;;;;;;5031771;28;20053;-88
2023/08/16 09:23:19;;;;;;;0.10;0.10;;;25.20;99.90;;;;;;5048797;28;20041;-89
2023/08/16 09:25:46;;;;;;;0.20;0.20;;;24.50;99.90;;;;;;5045289;28;20044;-88
2023/08/16 09:28:13;;;;;;;0.00;0.00;;;23.80;99.90;;;;;;5043281;28;20060;-88
2023/08/16 09:30:40;;;;;;;0.22;0.17;;;23.30;99.90;;;;;;5045276;28;20041;-88
2023/08/16 09:33:07;;;;;;;0.00;0.00;;;22.90;99.90;;;;;;5043290;28;20551;-88
2023/08/16 09:35:38;;;;;;;0.47;0.32;;;22.50;99.90;;;;;;5044820;28;20075;-88
2023/08/16 09:38:03;;;;;;;0.00;0.00;;;22.50;99.90;;;;;;5043385;28;20052;-87
2023/08/16 09:40:29;;;;;;;0.00;0.00;;;22.50;99.90;;;;;;5043093;28;20380;-88
2023/08/16 09:43:02;;;;;;;0.00;0.00;;;22.40;99.90;;;;;;5025018;28;20067;-87
2023/08/16 09:45:32;;;;;;;0.75;0.30;;;22.60;99.90;;;;;;5042232;28;20158;-88
2023/08/16 09:48:00;;;;;;;0.20;0.13;;;22.90;99.90;;;;;;5041885;28;20040;-88
2023/08/16 09:50:32;;;;;;;0.22;0.20;;;22.90;99.90;;;;;;5041945;28;20099;-88
2023/08/16 09:52:58;;;;;;;0.32;0.10;;;22.80;99.90;;;;;;5042971;28;20047;-87
2023/08/16 09:55:31;;;;;;;0.00;0.00;;;22.70;99.90;;;;;;5043710;28;20079;-88
2023/08/16 09:58:00;;;;;;;0.00;0.00;;;22.60;99.90;;;;;;5042796;28;20048;-88
2023/08/16 10:00:27;;;;;;;0.45;0.32;;;22.60;99.90;;;;;;5043200;28;20040;-89
2023/08/16 10:02:54;;;;;;;0.00;0.00;;;22.60;99.90;;;;;;5039478;28;20522;-89
2023/08/16 10:05:20;;;;;;;0.20;0.20;;;23.00;99.90;;;;;;5042425;28;20495;-89
2023/08/16 10:07:47;;;;;;;5.10;0.52;;;23.70;1.00;;;;;;5042677;28;20185;-88
2023/08/16 10:10:14;;;;;;;0.00;0.00;;;24.20;1.00;;;;;;5041099;28;20099;-89
2023/08/16 10:12:40;;;;;;;1.70;0.88;;;24.60;1.00;;;;;;5042430;28;20048;-88
2023/08/16 10:15:07;;;;;;;0.00;0.00;;;24.60;99.90;;;;;;5043951;28;20040;-85
2023/08/16 10:17:39;;;;;;;0.57;0.35;;;24.60;99.90;;;;;;5040915;28;20154;-86
2023/08/16 10:20:07;;;;;;;0.65;0.43;;;24.70;99.90;;;;;;5042403;28;20454;-85
2023/08/16 10:22:45;;;;;;;0.13;0.13;;;24.80;99.90;;;;;;5024256;28;20568;-88
2023/08/16 10:25:17;;;;;;;0.20;0.20;;;25.00;99.90;;;;;;5023381;28;20053;-88
2023/08/16 10:27:45;;;;;;;0.20;0.13;;;25.00;99.90;;;;;;5039945;28;20049;-86
2023/08/16 10:30:22;;;;;;;0.00;0.00;;;25.20;99.90;;;;;;5041158;28;20053;-86
2023/08/16 10:33:01;;;;;;;5.18;1.23;;;25.30;99.90;;;;;;5040861;28;20099;-86
2023/08/16 10:35:28;;;;;;;0.22;0.22;;;25.40;99.90;;;;;;5042206;28;20411;-86
2023/08/16 10:37:53;;;;;;;0.32;0.20;;;25.50;99.90;;;;;;5042328;28;20126;-86
2023/08/16 10:40:21;;;;;;;0.10;0.10;;;25.80;99.90;;;;;;5043595;28;20503;-86
2023/08/16 10:43:05;;;;;;;0.08;0.08;;;25.90;99.90;;;;;;5043517;28;20375;-86
2023/08/16 10:45:34;;;;;;;0.15;0.10;;;26.10;99.90;;;;;;5042247;28;20107;-86
2023/08/16 10:48:18;;;;;;;0.00;0.00;;;26.30;99.90;;;;;;5042376;28;20052;-86
2023/08/16 10:50:53;;;;;;;1.50;0.77;;;26.20;99.90;;;;;;5043781;28;20037;-86
2023/08/16 10:53:19;;;;;;;0.20;0.15;;;26.20;99.90;;;;;;5041841;28;20132;-86
2023/08/16 10:55:55;;;;;;;0.05;0.05;;;26.00;99.90;;;;;;5042651;28;20106;-86
2023/08/16 10:58:25;;;;;;;0.43;0.38;;;25.80;99.90;;;;;;5043932;28;20057;-87
2023/08/16 11:00:58;;;;;;;0.10;0.10;;;26.20;99.90;;;;;;5043813;28;20049;-87
2023/08/16 11:03:34;;;;;;;0.00;0.00;;;26.50;99.90;;;;;;5043992;28;20021;-86
2023/08/16 11:06:07;;;;;;;0.00;0.00;;;26.80;99.90;;;;;;5035893;28;20021;-87
2023/08/16 11:08:33;;;;;;;0.52;0.25;;;26.80;99.90;;;;;;5042891;28;20049;-87
2023/08/16 11:11:01;;;;;;;0.73;0.65;;;27.00;99.90;;;;;;5043908;28;20510;-87
2023/08/16 11:13:28;;;;;;;0.00;0.00;;;26.90;99.90;;;;;;5042569;28;20123;-87
2023/08/16 11:15:55;;;;;;;0.80;0.35;;;27.10;99.90;;;;;;5043411;28;20490;-87
2023/08/16 11:18:33;;;;;;;1.00;0.43;;;27.20;99.90;;;;;;5043832;28;20403;-86
2023/08/16 11:20:59;;;;;;;0.03;0.03;;;27.30;99.90;;;;;;5045245;28;20041;-87
2023/08/16 11:23:39;;;;;;;0.00;0.00;;;27.40;99.90;;;;;;5046578;28;20485;-87
2023/08/16 11:26:07;;;;;;;0.00;0.00;;;27.00;99.90;;;;;;5048136;28;20124;-87
2023/08/16 11:28:35;;;;;;;0.08;0.08;;;27.10;99.90;;;;;;5046176;28;20122;-87
2023/08/16 11:31:02;;;;;;;0.00;0.00;;;27.10;99.90;;;;;;5047129;28;20063;-87
2023/08/16 11:33:42;;;;;;;0.65;0.43;;;27.10;99.90;;;;;;5045686;28;20072;-87
2023/08/16 11:36:10;;;;;;;0.65;0.55;;;27.30;99.90;;;;;;5029424;28;20479;-88
2023/08/16 11:38:36;;;;;;;1.08;0.52;;;27.70;99.90;;;;;;5029202;28;20045;-88
2023/08/16 11:41:02;;;;;;;0.00;0.00;;;28.20;99.90;;;;;;5046246;28;20399;-88
2023/08/16 11:43:29;;;;;;;0.00;0.00;;;28.30;99.90;;;;;;5045959;28;20045;-87
2023/08/16 11:45:57;;;;;;;0.32;0.30;;;28.90;99.90;;;;;;5046881;28;20103;-88
2023/08/16 11:48:25;;;;;;;2.42;0.63;;;29.30;99.90;;;;;;5047642;28;20045;-88
2023/08/16 11:50:51;;;;;;;8.55;0.43;;;29.70;99.90;;;;;;5047020;28;20458;-87
2023/08/16 11:53:18;;;;;;;0.85;0.40;;;29.70;99.90;;;;;;5046050;28;20060;-87
2023/08/16 11:56:00;;;;;;;0.00;0.00;;;28.80;99.90;;;;;;5029427;28;20060;-87
2023/08/16 11:58:26;;;;;;;0.00;0.00;;;29.10;99.90;;;;;;5045432;28;20132;-87
2023/08/16 12:00:52;;;;;;;0.00;0.00;;;29.90;99.90;;;;;;5028883;28;20118;-87
2023/08/16 12:03:18;;;;;;;0.00;0.00;;;30.90;99.90;;;;;;5047013;28;20487;-87
2023/08/16 12:05:49;;;;;;;0.08;0.05;;;31.20;99.90;;;;;;5044762;28;20045;-87
2023/08/16 12:08:20;;;;;;;0.05;0.05;;;30.40;99.90;;;;;;5046570;28;20041;-87
2023/08/16 12:10:55;;;;;;;0.70;0.15;;;30.20;99.90;;;;;;5035392;28;20028;-87
2023/08/16 12:13:23;;;;;;;0.00;0.00;;;30.70;99.90;;;;;;5046404;28;20033;-87
2023/08/16 12:15:49;;;;;;;0.00;0.00;;;30.90;99.90;;;;;;5046268;28;20132;-87
2023/08/16 12:18:17;;;;;;;0.38;0.30;;;31.10;99.90;;;;;;5045222;28;20555;-87
2023/08/16 12:20:46;;;;;;;1.17;0.32;;;31.80;99.90;;;;;;5054091;28;20096;-87
2023/08/16 12:23:12;;;;;;;0.17;0.05;;;32.20;99.90;;;;;;5027535;28;20041;-87
2023/08/16 12:25:38;;;;;;;0.55;0.52;;;31.80;99.90;;;;;;5044338;28;20044;-86
2023/08/16 12:28:04;;;;;;;0.08;0.08;;;31.60;99.90;;;;;;5044743;28;20041;-86
2023/08/16 12:30:29;;;;;;;0.20;0.20;;;30.40;97.60;;;;;;5045607;28;20484;-87
2023/08/16 12:32:55;;;;;;;0.28;0.17;;;30.80;99.90;;;;;;5044423;28;20095;-87
2023/08/16 12:35:21;;;;;;;0.00;0.00;;;31.50;99.90;;;;;;5028391;28;20094;-87
2023/08/16 12:37:47;;;;;;;1.05;0.65;;;31.90;99.90;;;;;;5050593;28;20080;-87
2023/08/16 12:40:13;;;;;;;0.00;0.00;;;32.30;99.90;;;;;;5049553;28;20048;-87
2023/08/16 12:42:40;;;;;;;0.00;0.00;;;32.40;99.90;;;;;;5044644;28;20064;-87
2023/08/16 12:45:06;;;;;;;0.00;0.00;;;32.40;99.90;;;;;;5044097;28;20053;-87
2023/08/16 12:47:32;;;;;;;0.28;0.20;;;32.50;99.90;;;;;;5043738;28;20087;-87
2023/08/16 12:49:57;;;;;;;0.38;0.10;;;32.60;99.90;;;;;;5043794;28;20069;-87